sensor_id;sensor_type;location;lat;lon;timestamp;P1;durP1;ratioP1;P2;durP2;ratioP2
34019;SDS011;20895;51.034;3.742;2023-05-10T00:01:39;14.38;;;10.82;;
34019;SDS011;20895;51.034;3.742;2023-05-10T00:04:05;20.45;;;12.35;;
34019;SDS011;20895;51.034;3.742;2023-05-10T00:06:30;18.10;;;10.77;;
34019;SDS011;20895;51.034;3.742;2023-05-10T00:08:56;19.17;;;10.90;;
34019;SDS011;20895;51.034;3.742;2023-05-10T00:11:21;17.48;;;11.30;;
34019;SDS011;20895;51.034;3.742;2023-05-10T00:13:47;15.93;;;11.38;;
34019;SDS011;20895;51.034;3.742;2023-05-10T00:16:12;17.70;;;12.05;;
34019;SDS011;20895;51.034;3.742;2023-05-10T00:18:38;18.75;;;12.10;;
34019;SDS011;20895;51.034;3.742;2023-05-10T00:21:04;19.55;;;11.55;;
34019;SDS011;20895;51.034;3.742;2023-05-10T00:23:29;19.27;;;10.50;;
34019;SDS011;20895;51.034;3.742;2023-05-10T00:25:54;16.55;;;11.23;;
34019;SDS011;20895;51.034;3.742;2023-05-10T00:28:20;22.52;;;13.48;;
34019;SDS011;20895;51.034;3.742;2023-05-10T00:30:45;18.45;;;12.77;;
34019;SDS011;20895;51.034;3.742;2023-05-10T00:33:10;18.45;;;12.95;;
34019;SDS011;20895;51.034;3.742;2023-05-10T00:35:36;20.05;;;14.30;;
34019;SDS011;20895;51.034;3.742;2023-05-10T00:38:03;21.98;;;13.40;;
34019;SDS011;20895;51.034;3.742;2023-05-10T00:40:28;21.17;;;14.73;;
34019;SDS011;20895;51.034;3.742;2023-05-10T00:42:53;22.30;;;14.95;;
34019;SDS011;20895;51.034;3.742;2023-05-10T00:45:19;20.50;;;14.27;;
34019;SDS011;20895;51.034;3.742;2023-05-10T00:47:44;22.33;;;14.70;;
34019;SDS011;20895;51.034;3.742;2023-05-10T00:50:09;26.02;;;17.85;;
34019;SDS011;20895;51.034;3.742;2023-05-10T00:52:35;25.20;;;15.13;;
34019;SDS011;20895;51.034;3.742;2023-05-10T00:55:00;29.38;;;17.35;;
34019;SDS011;20895;51.034;3.742;2023-05-10T00:57:26;28.25;;;17.20;;
34019;SDS011;20895;51.034;3.742;2023-05-10T00:59:51;25.45;;;16.83;;
34019;SDS011;20895;51.034;3.742;2023-05-10T01:02:17;22.65;;;17.10;;
34019;SDS011;20895;51.034;3.742;2023-05-10T01:04:42;27.08;;;18.38;;
34019;SDS011;20895;51.034;3.742;2023-05-10T01:07:08;23.92;;;16.85;;
34019;SDS011;20895;51.034;3.742;2023-05-10T01:09:33;25.00;;;18.20;;
34019;SDS011;20895;51.034;3.742;2023-05-10T01:11:58;21.38;;;17.20;;
34019;SDS011;20895;51.034;3.742;2023-05-10T01:14:24;25.25;;;18.38;;
34019;SDS011;20895;51.034;3.742;2023-05-10T01:16:50;28.23;;;19.10;;
34019;SDS011;20895;51.034;3.742;2023-05-10T01:19:19;35.13;;;20.33;;
34019;SDS011;20895;51.034;3.742;2023-05-10T01:21:59;22.75;;;18.95;;
34019;SDS011;20895;51.034;3.742;2023-05-10T01:32:33;24.15;;;19.40;;
34019;SDS011;20895;51.034;3.742;2023-05-10T01:35:00;25.90;;;20.90;;
34019;SDS011;20895;51.034;3.742;2023-05-10T01:40:39;25.38;;;20.05;;
34019;SDS011;20895;51.034;3.742;2023-05-10T01:43:07;23.70;;;19.02;;
34019;SDS011;20895;51.034;3.742;2023-05-10T01:45:41;27.45;;;20.42;;
34019;SDS011;20895;51.034;3.742;2023-05-10T01:48:10;28.60;;;21.15;;
34019;SDS011;20895;51.034;3.742;2023-05-10T01:50:36;27.20;;;21.40;;
34019;SDS011;20895;51.034;3.742;2023-05-10T01:53:02;28.02;;;20.98;;
34019;SDS011;20895;51.034;3.742;2023-05-10T01:55:32;24.08;;;20.02;;
34019;SDS011;20895;51.034;3.742;2023-05-10T01:58:07;25.08;;;18.63;;
34019;SDS011;20895;51.034;3.742;2023-05-10T02:00:34;27.45;;;18.83;;
34019;SDS011;20895;51.034;3.742;2023-05-10T02:03:00;23.00;;;18.63;;
34019;SDS011;20895;51.034;3.742;2023-05-10T02:05:26;25.20;;;18.20;;
34019;SDS011;20895;51.034;3.742;2023-05-10T02:07:54;22.83;;;17.52;;
34019;SDS011;20895;51.034;3.742;2023-05-10T02:10:20;24.73;;;18.23;;
34019;SDS011;20895;51.034;3.742;2023-05-10T02:12:46;28.92;;;20.33;;
34019;SDS011;20895;51.034;3.742;2023-05-10T02:15:12;24.38;;;17.25;;
34019;SDS011;20895;51.034;3.742;2023-05-10T02:17:39;23.38;;;16.63;;
34019;SDS011;20895;51.034;3.742;2023-05-10T02:20:06;27.52;;;17.55;;
34019;SDS011;20895;51.034;3.742;2023-05-10T02:22:32;23.15;;;17.15;;
34019;SDS011;20895;51.034;3.742;2023-05-10T02:24:59;24.92;;;17.33;;
34019;SDS011;20895;51.034;3.742;2023-05-10T02:27:25;22.08;;;15.73;;
34019;SDS011;20895;51.034;3.742;2023-05-10T02:29:51;22.80;;;17.10;;
34019;SDS011;20895;51.034;3.742;2023-05-10T02:32:17;22.52;;;16.55;;
34019;SDS011;20895;51.034;3.742;2023-05-10T02:34:44;21.45;;;16.27;;
34019;SDS011;20895;51.034;3.742;2023-05-10T02:37:11;22.70;;;15.50;;
34019;SDS011;20895;51.034;3.742;2023-05-10T02:39:37;25.20;;;17.20;;
34019;SDS011;20895;51.034;3.742;2023-05-10T02:42:05;22.40;;;15.73;;
34019;SDS011;20895;51.034;3.742;2023-05-10T02:44:31;20.60;;;15.68;;
34019;SDS011;20895;51.034;3.742;2023-05-10T02:46:57;21.40;;;15.90;;
34019;SDS011;20895;51.034;3.742;2023-05-10T02:49:23;19.15;;;15.15;;
34019;SDS011;20895;51.034;3.742;2023-05-10T02:51:49;21.60;;;15.10;;
34019;SDS011;20895;51.034;3.742;2023-05-10T02:54:18;21.30;;;14.20;;
34019;SDS011;20895;51.034;3.742;2023-05-10T02:56:46;19.02;;;15.30;;
34019;SDS011;20895;51.034;3.742;2023-05-10T02:59:12;19.77;;;14.55;;
34019;SDS011;20895;51.034;3.742;2023-05-10T03:01:37;20.17;;;15.63;;
34019;SDS011;20895;51.034;3.742;2023-05-10T03:04:03;21.80;;;16.00;;
34019;SDS011;20895;51.034;3.742;2023-05-10T03:06:28;19.45;;;14.70;;
34019;SDS011;20895;51.034;3.742;2023-05-10T03:08:54;19.27;;;13.93;;
34019;SDS011;20895;51.034;3.742;2023-05-10T03:16:27;17.70;;;13.38;;
34019;SDS011;20895;51.034;3.742;2023-05-10T03:21:19;17.67;;;13.52;;
34019;SDS011;20895;51.034;3.742;2023-05-10T03:23:50;17.88;;;15.25;;
34019;SDS011;20895;51.034;3.742;2023-05-10T03:26:26;18.02;;;13.48;;
34019;SDS011;20895;51.034;3.742;2023-05-10T03:28:51;19.70;;;14.02;;
34019;SDS011;20895;51.034;3.742;2023-05-10T03:31:17;19.52;;;14.82;;
34019;SDS011;20895;51.034;3.742;2023-05-10T03:33:49;18.98;;;14.57;;
34019;SDS011;20895;51.034;3.742;2023-05-10T03:36:15;17.75;;;14.93;;
34019;SDS011;20895;51.034;3.742;2023-05-10T03:38:40;21.42;;;15.85;;
34019;SDS011;20895;51.034;3.742;2023-05-10T03:41:06;22.77;;;17.55;;
34019;SDS011;20895;51.034;3.742;2023-05-10T03:43:31;18.35;;;15.48;;
34019;SDS011;20895;51.034;3.742;2023-05-10T03:45:56;23.65;;;16.38;;
34019;SDS011;20895;51.034;3.742;2023-05-10T03:48:21;20.38;;;15.40;;
34019;SDS011;20895;51.034;3.742;2023-05-10T03:50:47;18.63;;;15.15;;
34019;SDS011;20895;51.034;3.742;2023-05-10T03:53:14;19.00;;;15.52;;
34019;SDS011;20895;51.034;3.742;2023-05-10T03:55:39;22.83;;;15.25;;
34019;SDS011;20895;51.034;3.742;2023-05-10T03:58:04;21.63;;;16.23;;
34019;SDS011;20895;51.034;3.742;2023-05-10T04:00:30;18.55;;;15.65;;
34019;SDS011;20895;51.034;3.742;2023-05-10T04:02:55;23.10;;;18.00;;
34019;SDS011;20895;51.034;3.742;2023-05-10T04:05:20;22.27;;;17.67;;
34019;SDS011;20895;51.034;3.742;2023-05-10T04:07:45;20.02;;;15.80;;
34019;SDS011;20895;51.034;3.742;2023-05-10T04:10:12;21.50;;;16.23;;
34019;SDS011;20895;51.034;3.742;2023-05-10T04:12:37;23.77;;;16.33;;
34019;SDS011;20895;51.034;3.742;2023-05-10T04:15:02;21.65;;;16.88;;
34019;SDS011;20895;51.034;3.742;2023-05-10T04:17:28;22.20;;;17.67;;
34019;SDS011;20895;51.034;3.742;2023-05-10T04:19:54;25.52;;;18.42;;
34019;SDS011;20895;51.034;3.742;2023-05-10T04:22:19;23.00;;;18.13;;
34019;SDS011;20895;51.034;3.742;2023-05-10T04:24:45;23.58;;;19.25;;
34019;SDS011;20895;51.034;3.742;2023-05-10T04:27:10;27.95;;;21.23;;
34019;SDS011;20895;51.034;3.742;2023-05-10T04:29:36;29.00;;;21.92;;
34019;SDS011;20895;51.034;3.742;2023-05-10T04:32:01;29.63;;;21.73;;
34019;SDS011;20895;51.034;3.742;2023-05-10T04:34:27;27.35;;;19.30;;
34019;SDS011;20895;51.034;3.742;2023-05-10T04:36:52;24.58;;;20.67;;
34019;SDS011;20895;51.034;3.742;2023-05-10T04:39:17;29.67;;;20.77;;
34019;SDS011;20895;51.034;3.742;2023-05-10T04:41:43;29.85;;;20.35;;
34019;SDS011;20895;51.034;3.742;2023-05-10T04:44:08;26.98;;;19.38;;
34019;SDS011;20895;51.034;3.742;2023-05-10T04:46:33;25.90;;;20.23;;
34019;SDS011;20895;51.034;3.742;2023-05-10T04:48:58;24.65;;;19.83;;
34019;SDS011;20895;51.034;3.742;2023-05-10T04:51:24;25.20;;;19.80;;
34019;SDS011;20895;51.034;3.742;2023-05-10T04:53:49;27.80;;;20.67;;
34019;SDS011;20895;51.034;3.742;2023-05-10T04:56:14;28.10;;;21.35;;
34019;SDS011;20895;51.034;3.742;2023-05-10T04:58:41;27.25;;;20.63;;
34019;SDS011;20895;51.034;3.742;2023-05-10T05:01:06;29.95;;;21.30;;
34019;SDS011;20895;51.034;3.742;2023-05-10T05:03:35;26.65;;;21.00;;
34019;SDS011;20895;51.034;3.742;2023-05-10T05:06:01;31.23;;;22.33;;
34019;SDS011;20895;51.034;3.742;2023-05-10T05:08:26;28.83;;;22.33;;
34019;SDS011;20895;51.034;3.742;2023-05-10T05:10:52;27.17;;;22.13;;
34019;SDS011;20895;51.034;3.742;2023-05-10T05:13:17;27.33;;;21.75;;
34019;SDS011;20895;51.034;3.742;2023-05-10T05:15:42;30.15;;;22.30;;
34019;SDS011;20895;51.034;3.742;2023-05-10T05:18:08;27.13;;;22.65;;
34019;SDS011;20895;51.034;3.742;2023-05-10T05:20:33;29.23;;;21.88;;
34019;SDS011;20895;51.034;3.742;2023-05-10T05:22:59;29.50;;;22.30;;
34019;SDS011;20895;51.034;3.742;2023-05-10T05:25:24;30.30;;;22.52;;
34019;SDS011;20895;51.034;3.742;2023-05-10T05:27:50;38.03;;;24.63;;
34019;SDS011;20895;51.034;3.742;2023-05-10T05:30:15;40.67;;;24.95;;
34019;SDS011;20895;51.034;3.742;2023-05-10T05:32:40;27.92;;;23.50;;
34019;SDS011;20895;51.034;3.742;2023-05-10T05:35:05;29.25;;;21.90;;
34019;SDS011;20895;51.034;3.742;2023-05-10T05:37:31;30.63;;;21.83;;
34019;SDS011;20895;51.034;3.742;2023-05-10T05:39:56;28.33;;;22.35;;
34019;SDS011;20895;51.034;3.742;2023-05-10T05:42:21;31.45;;;21.35;;
34019;SDS011;20895;51.034;3.742;2023-05-10T05:44:47;28.63;;;22.58;;
34019;SDS011;20895;51.034;3.742;2023-05-10T05:47:12;32.33;;;24.52;;
34019;SDS011;20895;51.034;3.742;2023-05-10T05:49:37;33.75;;;24.20;;
34019;SDS011;20895;51.034;3.742;2023-05-10T05:52:03;28.75;;;23.33;;
34019;SDS011;20895;51.034;3.742;2023-05-10T05:54:30;32.58;;;23.80;;
34019;SDS011;20895;51.034;3.742;2023-05-10T05:56:59;30.55;;;24.85;;
34019;SDS011;20895;51.034;3.742;2023-05-10T05:59:24;27.38;;;22.73;;
34019;SDS011;20895;51.034;3.742;2023-05-10T06:01:50;28.98;;;23.35;;
34019;SDS011;20895;51.034;3.742;2023-05-10T06:04:15;27.48;;;22.45;;
34019;SDS011;20895;51.034;3.742;2023-05-10T06:06:41;30.35;;;23.90;;
34019;SDS011;20895;51.034;3.742;2023-05-10T06:09:07;34.67;;;25.15;;
34019;SDS011;20895;51.034;3.742;2023-05-10T06:11:32;29.75;;;24.35;;
34019;SDS011;20895;51.034;3.742;2023-05-10T06:13:58;35.13;;;24.48;;
34019;SDS011;20895;51.034;3.742;2023-05-10T06:16:23;31.52;;;23.92;;
34019;SDS011;20895;51.034;3.742;2023-05-10T06:18:49;32.72;;;23.60;;
34019;SDS011;20895;51.034;3.742;2023-05-10T06:21:14;29.30;;;24.23;;
34019;SDS011;20895;51.034;3.742;2023-05-10T06:23:40;30.27;;;24.75;;
34019;SDS011;20895;51.034;3.742;2023-05-10T06:26:05;35.80;;;23.35;;
34019;SDS011;20895;51.034;3.742;2023-05-10T06:28:30;40.95;;;25.77;;
34019;SDS011;20895;51.034;3.742;2023-05-10T06:30:57;36.05;;;23.95;;
34019;SDS011;20895;51.034;3.742;2023-05-10T06:33:22;35.67;;;23.95;;
34019;SDS011;20895;51.034;3.742;2023-05-10T06:35:47;37.90;;;26.38;;
34019;SDS011;20895;51.034;3.742;2023-05-10T06:38:12;35.70;;;26.02;;
34019;SDS011;20895;51.034;3.742;2023-05-10T06:40:40;33.72;;;25.83;;
34019;SDS011;20895;51.034;3.742;2023-05-10T06:43:06;35.38;;;25.20;;
34019;SDS011;20895;51.034;3.742;2023-05-10T06:45:31;38.20;;;25.27;;
34019;SDS011;20895;51.034;3.742;2023-05-10T06:47:56;38.97;;;26.40;;
34019;SDS011;20895;51.034;3.742;2023-05-10T06:50:21;34.35;;;24.25;;
34019;SDS011;20895;51.034;3.742;2023-05-10T06:52:47;36.45;;;27.75;;
34019;SDS011;20895;51.034;3.742;2023-05-10T06:55:12;39.08;;;26.70;;
34019;SDS011;20895;51.034;3.742;2023-05-10T06:57:37;39.42;;;26.60;;
34019;SDS011;20895;51.034;3.742;2023-05-10T07:00:03;38.88;;;27.83;;
34019;SDS011;20895;51.034;3.742;2023-05-10T07:02:31;38.53;;;25.70;;
34019;SDS011;20895;51.034;3.742;2023-05-10T07:04:56;44.35;;;27.75;;
34019;SDS011;20895;51.034;3.742;2023-05-10T07:07:22;34.58;;;23.58;;
34019;SDS011;20895;51.034;3.742;2023-05-10T07:09:47;33.30;;;24.27;;
34019;SDS011;20895;51.034;3.742;2023-05-10T07:12:13;38.13;;;26.17;;
34019;SDS011;20895;51.034;3.742;2023-05-10T07:14:39;30.10;;;22.77;;
34019;SDS011;20895;51.034;3.742;2023-05-10T07:17:04;37.85;;;25.17;;
34019;SDS011;20895;51.034;3.742;2023-05-10T07:19:30;28.90;;;22.17;;
34019;SDS011;20895;51.034;3.742;2023-05-10T07:21:57;32.78;;;22.40;;
34019;SDS011;20895;51.034;3.742;2023-05-10T07:24:22;33.05;;;23.90;;
34019;SDS011;20895;51.034;3.742;2023-05-10T07:26:48;31.20;;;21.48;;
34019;SDS011;20895;51.034;3.742;2023-05-10T07:29:13;34.65;;;21.58;;
34019;SDS011;20895;51.034;3.742;2023-05-10T07:31:39;33.17;;;23.15;;
34019;SDS011;20895;51.034;3.742;2023-05-10T07:34:06;28.35;;;22.00;;
34019;SDS011;20895;51.034;3.742;2023-05-10T07:36:32;29.70;;;21.35;;
34019;SDS011;20895;51.034;3.742;2023-05-10T07:38:57;33.28;;;21.90;;
34019;SDS011;20895;51.034;3.742;2023-05-10T07:41:22;28.77;;;21.05;;
34019;SDS011;20895;51.034;3.742;2023-05-10T07:43:48;24.17;;;19.20;;
34019;SDS011;20895;51.034;3.742;2023-05-10T07:46:13;29.80;;;21.15;;
34019;SDS011;20895;51.034;3.742;2023-05-10T07:48:38;26.60;;;20.25;;
34019;SDS011;20895;51.034;3.742;2023-05-10T07:51:03;26.85;;;20.95;;
34019;SDS011;20895;51.034;3.742;2023-05-10T07:53:29;24.92;;;19.65;;
34019;SDS011;20895;51.034;3.742;2023-05-10T07:55:57;29.05;;;20.77;;
34019;SDS011;20895;51.034;3.742;2023-05-10T07:58:23;25.50;;;19.85;;
34019;SDS011;20895;51.034;3.742;2023-05-10T08:00:48;22.92;;;18.65;;
34019;SDS011;20895;51.034;3.742;2023-05-10T08:03:14;29.13;;;20.08;;
34019;SDS011;20895;51.034;3.742;2023-05-10T08:05:39;30.38;;;20.63;;
34019;SDS011;20895;51.034;3.742;2023-05-10T08:08:05;29.08;;;20.52;;
34019;SDS011;20895;51.034;3.742;2023-05-10T08:10:30;33.13;;;20.48;;
34019;SDS011;20895;51.034;3.742;2023-05-10T08:12:56;28.27;;;21.83;;
34019;SDS011;20895;51.034;3.742;2023-05-10T08:15:21;27.10;;;21.02;;
34019;SDS011;20895;51.034;3.742;2023-05-10T08:17:46;31.73;;;22.10;;
34019;SDS011;20895;51.034;3.742;2023-05-10T08:20:11;27.75;;;20.08;;
34019;SDS011;20895;51.034;3.742;2023-05-10T08:22:37;28.30;;;21.52;;
34019;SDS011;20895;51.034;3.742;2023-05-10T08:25:03;28.92;;;19.75;;
34019;SDS011;20895;51.034;3.742;2023-05-10T08:27:28;28.23;;;19.80;;
34019;SDS011;20895;51.034;3.742;2023-05-10T08:29:53;33.97;;;20.48;;
34019;SDS011;20895;51.034;3.742;2023-05-10T08:32:19;25.63;;;17.83;;
34019;SDS011;20895;51.034;3.742;2023-05-10T08:34:44;26.30;;;18.27;;
34019;SDS011;20895;51.034;3.742;2023-05-10T08:37:09;27.42;;;17.80;;
34019;SDS011;20895;51.034;3.742;2023-05-10T08:39:37;27.20;;;19.05;;
34019;SDS011;20895;51.034;3.742;2023-05-10T08:42:03;22.70;;;17.88;;
34019;SDS011;20895;51.034;3.742;2023-05-10T08:44:30;28.52;;;19.73;;
34019;SDS011;20895;51.034;3.742;2023-05-10T08:46:56;28.00;;;17.90;;
34019;SDS011;20895;51.034;3.742;2023-05-10T08:49:22;29.80;;;18.40;;
34019;SDS011;20895;51.034;3.742;2023-05-10T08:51:49;25.35;;;18.00;;
34019;SDS011;20895;51.034;3.742;2023-05-10T08:54:16;23.00;;;16.23;;
34019;SDS011;20895;51.034;3.742;2023-05-10T08:56:41;27.23;;;18.13;;
34019;SDS011;20895;51.034;3.742;2023-05-10T08:59:06;22.48;;;16.02;;
34019;SDS011;20895;51.034;3.742;2023-05-10T09:01:32;20.95;;;15.95;;
34019;SDS011;20895;51.034;3.742;2023-05-10T09:03:58;29.55;;;16.50;;
34019;SDS011;20895;51.034;3.742;2023-05-10T09:06:23;22.20;;;15.05;;
34019;SDS011;20895;51.034;3.742;2023-05-10T09:08:49;23.17;;;15.10;;
34019;SDS011;20895;51.034;3.742;2023-05-10T09:11:14;21.63;;;15.68;;
34019;SDS011;20895;51.034;3.742;2023-05-10T09:13:40;21.73;;;15.38;;
34019;SDS011;20895;51.034;3.742;2023-05-10T09:16:05;25.45;;;16.73;;
34019;SDS011;20895;51.034;3.742;2023-05-10T09:18:31;22.02;;;15.10;;
34019;SDS011;20895;51.034;3.742;2023-05-10T09:20:56;22.65;;;17.00;;
34019;SDS011;20895;51.034;3.742;2023-05-10T09:23:21;22.50;;;15.15;;
34019;SDS011;20895;51.034;3.742;2023-05-10T09:25:47;27.23;;;16.15;;
34019;SDS011;20895;51.034;3.742;2023-05-10T09:28:12;23.92;;;16.85;;
34019;SDS011;20895;51.034;3.742;2023-05-10T09:30:37;20.25;;;14.60;;
34019;SDS011;20895;51.034;3.742;2023-05-10T09:33:03;23.65;;;14.50;;
34019;SDS011;20895;51.034;3.742;2023-05-10T09:35:30;22.77;;;16.35;;
34019;SDS011;20895;51.034;3.742;2023-05-10T09:37:56;23.77;;;14.93;;
34019;SDS011;20895;51.034;3.742;2023-05-10T09:40:22;19.13;;;13.77;;
34019;SDS011;20895;51.034;3.742;2023-05-10T09:42:51;18.42;;;14.98;;
34019;SDS011;20895;51.034;3.742;2023-05-10T09:45:17;19.63;;;13.77;;
34019;SDS011;20895;51.034;3.742;2023-05-10T09:47:43;22.38;;;14.10;;
34019;SDS011;20895;51.034;3.742;2023-05-10T09:50:09;18.05;;;13.07;;
34019;SDS011;20895;51.034;3.742;2023-05-10T09:52:53;15.63;;;12.35;;
34019;SDS011;20895;51.034;3.742;2023-05-10T09:55:20;17.98;;;12.75;;
34019;SDS011;20895;51.034;3.742;2023-05-10T09:57:46;22.25;;;13.27;;
34019;SDS011;20895;51.034;3.742;2023-05-10T10:00:16;18.67;;;12.35;;
34019;SDS011;20895;51.034;3.742;2023-05-10T10:02:41;20.17;;;11.98;;
34019;SDS011;20895;51.034;3.742;2023-05-10T10:05:09;16.92;;;11.57;;
34019;SDS011;20895;51.034;3.742;2023-05-10T10:07:36;18.08;;;12.55;;
34019;SDS011;20895;51.034;3.742;2023-05-10T10:10:01;20.35;;;12.07;;
34019;SDS011;20895;51.034;3.742;2023-05-10T10:12:27;14.90;;;11.43;;
34019;SDS011;20895;51.034;3.742;2023-05-10T10:14:53;14.93;;;10.68;;
34019;SDS011;20895;51.034;3.742;2023-05-10T10:17:18;16.73;;;11.70;;
34019;SDS011;20895;51.034;3.742;2023-05-10T10:19:44;17.48;;;11.65;;
34019;SDS011;20895;51.034;3.742;2023-05-10T10:22:10;15.63;;;11.38;;
34019;SDS011;20895;51.034;3.742;2023-05-10T10:24:37;14.93;;;10.65;;
34019;SDS011;20895;51.034;3.742;2023-05-10T10:27:48;18.55;;;12.45;;
34019;SDS011;20895;51.034;3.742;2023-05-10T10:29:53;16.38;;;11.23;;
34019;SDS011;20895;51.034;3.742;2023-05-10T10:35:07;15.65;;;10.85;;
34019;SDS011;20895;51.034;3.742;2023-05-10T10:37:44;16.35;;;11.30;;
34019;SDS011;20895;51.034;3.742;2023-05-10T10:42:51;13.85;;;9.63;;
34019;SDS011;20895;51.034;3.742;2023-05-10T10:45:16;16.10;;;10.52;;
34019;SDS011;20895;51.034;3.742;2023-05-10T10:47:42;13.98;;;9.82;;
34019;SDS011;20895;51.034;3.742;2023-05-10T10:50:08;11.50;;;8.75;;
34019;SDS011;20895;51.034;3.742;2023-05-10T10:52:38;15.60;;;11.75;;
34019;SDS011;20895;51.034;3.742;2023-05-10T10:57:56;13.25;;;11.20;;
34019;SDS011;20895;51.034;3.742;2023-05-10T11:02:52;14.15;;;9.77;;
34019;SDS011;20895;51.034;3.742;2023-05-10T11:07:58;12.95;;;10.25;;
34019;SDS011;20895;51.034;3.742;2023-05-10T11:10:24;14.55;;;11.18;;
34019;SDS011;20895;51.034;3.742;2023-05-10T11:12:59;20.10;;;10.75;;
34019;SDS011;20895;51.034;3.742;2023-05-10T11:15:35;12.85;;;11.55;;
34019;SDS011;20895;51.034;3.742;2023-05-10T11:20:41;15.23;;;12.50;;
34019;SDS011;20895;51.034;3.742;2023-05-10T11:23:16;17.05;;;12.38;;
34019;SDS011;20895;51.034;3.742;2023-05-10T11:25:43;18.00;;;14.32;;
34019;SDS011;20895;51.034;3.742;2023-05-10T11:28:11;20.15;;;15.65;;
34019;SDS011;20895;51.034;3.742;2023-05-10T11:30:41;18.77;;;15.63;;
34019;SDS011;20895;51.034;3.742;2023-05-10T11:33:06;20.00;;;16.38;;
34019;SDS011;20895;51.034;3.742;2023-05-10T11:35:38;21.63;;;16.75;;
34019;SDS011;20895;51.034;3.742;2023-05-10T11:38:08;21.15;;;18.17;;
34019;SDS011;20895;51.034;3.742;2023-05-10T11:40:33;19.42;;;16.23;;
34019;SDS011;20895;51.034;3.742;2023-05-10T11:42:59;19.33;;;16.42;;
34019;SDS011;20895;51.034;3.742;2023-05-10T11:45:24;20.48;;;17.95;;
34019;SDS011;20895;51.034;3.742;2023-05-10T11:47:50;18.88;;;16.15;;
34019;SDS011;20895;51.034;3.742;2023-05-10T11:50:16;25.27;;;18.45;;
34019;SDS011;20895;51.034;3.742;2023-05-10T11:52:42;22.27;;;16.92;;
34019;SDS011;20895;51.034;3.742;2023-05-10T11:55:07;19.55;;;16.75;;
34019;SDS011;20895;51.034;3.742;2023-05-10T11:57:32;21.92;;;16.65;;
34019;SDS011;20895;51.034;3.742;2023-05-10T11:59:58;22.15;;;17.13;;
34019;SDS011;20895;51.034;3.742;2023-05-10T12:02:23;19.08;;;15.40;;
34019;SDS011;20895;51.034;3.742;2023-05-10T12:04:48;18.80;;;16.90;;
34019;SDS011;20895;51.034;3.742;2023-05-10T12:07:14;17.80;;;15.95;;
34019;SDS011;20895;51.034;3.742;2023-05-10T12:10:02;17.67;;;15.48;;
34019;SDS011;20895;51.034;3.742;2023-05-10T12:12:27;16.55;;;14.80;;
34019;SDS011;20895;51.034;3.742;2023-05-10T12:14:59;19.55;;;16.48;;
34019;SDS011;20895;51.034;3.742;2023-05-10T12:17:27;19.35;;;15.50;;
34019;SDS011;20895;51.034;3.742;2023-05-10T12:19:52;22.27;;;15.57;;
34019;SDS011;20895;51.034;3.742;2023-05-10T12:22:20;25.55;;;15.23;;
34019;SDS011;20895;51.034;3.742;2023-05-10T12:24:45;22.13;;;14.60;;
34019;SDS011;20895;51.034;3.742;2023-05-10T12:27:10;18.30;;;14.25;;
34019;SDS011;20895;51.034;3.742;2023-05-10T12:29:37;15.52;;;13.25;;
34019;SDS011;20895;51.034;3.742;2023-05-10T12:32:08;18.83;;;14.93;;
34019;SDS011;20895;51.034;3.742;2023-05-10T12:34:34;17.60;;;13.75;;
34019;SDS011;20895;51.034;3.742;2023-05-10T12:37:01;17.73;;;14.15;;
34019;SDS011;20895;51.034;3.742;2023-05-10T12:39:37;17.77;;;13.07;;
34019;SDS011;20895;51.034;3.742;2023-05-10T12:42:03;17.75;;;14.15;;
34019;SDS011;20895;51.034;3.742;2023-05-10T12:44:28;19.77;;;14.60;;
34019;SDS011;20895;51.034;3.742;2023-05-10T12:46:54;15.82;;;13.98;;
34019;SDS011;20895;51.034;3.742;2023-05-10T12:49:19;17.27;;;15.55;;
34019;SDS011;20895;51.034;3.742;2023-05-10T12:51:44;19.42;;;15.73;;
34019;SDS011;20895;51.034;3.742;2023-05-10T12:54:09;15.95;;;13.98;;
34019;SDS011;20895;51.034;3.742;2023-05-10T12:56:35;16.38;;;14.38;;
34019;SDS011;20895;51.034;3.742;2023-05-10T12:59:01;16.80;;;15.05;;
34019;SDS011;20895;51.034;3.742;2023-05-10T13:01:27;20.80;;;15.38;;
34019;SDS011;20895;51.034;3.742;2023-05-10T13:03:52;20.02;;;16.00;;
34019;SDS011;20895;51.034;3.742;2023-05-10T13:06:19;20.60;;;16.30;;
34019;SDS011;20895;51.034;3.742;2023-05-10T13:08:44;20.17;;;16.52;;
34019;SDS011;20895;51.034;3.742;2023-05-10T13:11:09;22.08;;;16.42;;
34019;SDS011;20895;51.034;3.742;2023-05-10T13:13:35;22.25;;;17.60;;
34019;SDS011;20895;51.034;3.742;2023-05-10T13:16:00;21.98;;;18.30;;
34019;SDS011;20895;51.034;3.742;2023-05-10T13:18:25;20.88;;;15.40;;
34019;SDS011;20895;51.034;3.742;2023-05-10T13:20:51;22.27;;;14.98;;
34019;SDS011;20895;51.034;3.742;2023-05-10T13:23:16;19.52;;;16.75;;
34019;SDS011;20895;51.034;3.742;2023-05-10T13:25:41;21.95;;;16.60;;
34019;SDS011;20895;51.034;3.742;2023-05-10T13:28:07;21.17;;;17.58;;
34019;SDS011;20895;51.034;3.742;2023-05-10T13:30:32;20.48;;;15.00;;
34019;SDS011;20895;51.034;3.742;2023-05-10T13:32:57;20.58;;;13.10;;
34019;SDS011;20895;51.034;3.742;2023-05-10T13:35:22;19.35;;;12.45;;
34019;SDS011;20895;51.034;3.742;2023-05-10T13:37:48;19.00;;;14.35;;
34019;SDS011;20895;51.034;3.742;2023-05-10T13:40:13;20.67;;;14.57;;
34019;SDS011;20895;51.034;3.742;2023-05-10T13:42:40;20.60;;;15.27;;
34019;SDS011;20895;51.034;3.742;2023-05-10T13:45:05;20.75;;;15.80;;
34019;SDS011;20895;51.034;3.742;2023-05-10T13:47:31;19.48;;;17.08;;
34019;SDS011;20895;51.034;3.742;2023-05-10T13:49:56;23.42;;;16.80;;
34019;SDS011;20895;51.034;3.742;2023-05-10T13:52:22;28.25;;;18.80;;
34019;SDS011;20895;51.034;3.742;2023-05-10T13:54:48;23.23;;;16.95;;
34019;SDS011;20895;51.034;3.742;2023-05-10T13:57:13;20.95;;;16.00;;
34019;SDS011;20895;51.034;3.742;2023-05-10T13:59:39;21.02;;;16.95;;
34019;SDS011;20895;51.034;3.742;2023-05-10T14:02:04;24.73;;;16.42;;
34019;SDS011;20895;51.034;3.742;2023-05-10T14:04:30;27.55;;;18.05;;
34019;SDS011;20895;51.034;3.742;2023-05-10T14:06:56;21.25;;;16.50;;
34019;SDS011;20895;51.034;3.742;2023-05-10T14:09:21;22.73;;;16.85;;
34019;SDS011;20895;51.034;3.742;2023-05-10T14:11:47;22.23;;;17.55;;
34019;SDS011;20895;51.034;3.742;2023-05-10T14:14:12;20.17;;;15.15;;
34019;SDS011;20895;51.034;3.742;2023-05-10T14:16:38;21.38;;;16.77;;
34019;SDS011;20895;51.034;3.742;2023-05-10T14:19:03;22.48;;;16.63;;
34019;SDS011;20895;51.034;3.742;2023-05-10T14:21:28;22.73;;;17.50;;
34019;SDS011;20895;51.034;3.742;2023-05-10T14:23:57;22.27;;;17.80;;
34019;SDS011;20895;51.034;3.742;2023-05-10T14:26:22;21.35;;;16.38;;
34019;SDS011;20895;51.034;3.742;2023-05-10T14:28:47;24.85;;;17.92;;
34019;SDS011;20895;51.034;3.742;2023-05-10T14:31:13;23.02;;;15.98;;
34019;SDS011;20895;51.034;3.742;2023-05-10T14:33:39;21.55;;;16.25;;
34019;SDS011;20895;51.034;3.742;2023-05-10T14:36:05;20.00;;;15.40;;
34019;SDS011;20895;51.034;3.742;2023-05-10T14:38:30;18.25;;;14.77;;
34019;SDS011;20895;51.034;3.742;2023-05-10T14:40:55;20.98;;;14.77;;
34019;SDS011;20895;51.034;3.742;2023-05-10T14:43:21;18.42;;;13.85;;
34019;SDS011;20895;51.034;3.742;2023-05-10T14:45:46;18.08;;;13.15;;
34019;SDS011;20895;51.034;3.742;2023-05-10T14:48:12;16.80;;;12.63;;
34019;SDS011;20895;51.034;3.742;2023-05-10T14:50:40;17.48;;;12.98;;